createdAt,value
2019-04-01T14:14:56.688Z,101237.41
2019-04-01T14:17:27.061Z,101248.74
2019-04-01T14:20:02.239Z,101253.16
2019-04-01T14:22:33.469Z,101260.55
2019-04-01T14:25:07.302Z,101259.13
2019-04-01T14:27:39.274Z,101269.84
2019-04-01T14:30:10.463Z,101268.42
2019-04-01T14:32:45.325Z,101282.70
2019-04-01T14:35:16.812Z,101295.84
2019-04-01T14:37:46.501Z,101300.45
2019-04-01T14:40:19.471Z,101299.94
2019-04-01T14:42:50.779Z,101296.05
2019-04-01T14:45:22.707Z,101299.31
2019-04-01T14:47:57.618Z,101301.55
2019-04-01T14:50:25.661Z,101307.33
2019-04-01T14:52:56.577Z,101320.28
2019-04-01T14:55:28.541Z,101320.80
2019-04-01T14:58:03.830Z,101319.92
2019-04-01T15:00:35.207Z,101332.36
2019-04-01T15:03:11.964Z,101324.92
2019-04-01T15:05:43.023Z,101321.66
2019-04-01T15:08:15.179Z,101331.05
2019-04-01T15:10:47.190Z,101320.59
2019-04-01T15:13:18.384Z,101326.09
2019-04-01T15:15:49.991Z,101329.41
2019-04-01T15:18:24.129Z,101334.60
2019-04-01T15:20:55.490Z,101327.52
2019-04-01T15:23:27.300Z,101330.98
2019-04-01T15:25:58.037Z,101334.95
2019-04-01T15:28:30.579Z,101320.08
2019-04-01T15:31:02.493Z,101321.64
2019-04-01T15:33:33.461Z,101318.48
2019-04-01T15:36:05.209Z,101311.59
2019-04-01T15:38:36.207Z,101317.14
2019-04-01T15:41:07.351Z,101316.70
2019-04-01T15:43:40.172Z,101319.48
2019-04-01T15:46:12.387Z,101322.75
2019-04-01T15:48:42.385Z,101320.97
2019-04-01T15:51:22.334Z,101310.06
2019-04-01T15:53:53.699Z,101312.47
2019-04-01T15:56:24.940Z,101319.91
2019-04-01T15:58:55.663Z,101325.95
2019-04-01T16:01:26.864Z,101328.20
2019-04-01T16:03:56.835Z,101330.43
2019-04-01T16:06:29.112Z,101333.25
2019-04-01T16:09:00.239Z,101327.50
2019-04-01T16:11:31.105Z,101329.73
2019-04-01T16:14:02.706Z,101318.07
2019-04-01T16:16:33.705Z,101318.80
2019-04-01T16:19:04.976Z,101315.42
2019-04-01T16:21:43.663Z,101310.27
2019-04-01T16:24:15.355Z,101306.62
2019-04-01T16:26:47.829Z,101300.39
2019-04-01T16:29:19.432Z,101298.84
2019-04-01T16:31:51.166Z,101291.07
2019-04-01T16:34:21.360Z,101286.80
2019-04-01T16:36:55.823Z,101286.22
2019-04-01T16:39:27.303Z,101288.73
2019-04-01T16:41:59.187Z,101281.85
2019-04-01T16:44:30.708Z,101278.59
2019-04-01T16:47:00.901Z,101276.69
2019-04-01T16:49:32.468Z,101266.20
2019-04-01T16:52:03.332Z,101260.39
2019-04-01T16:54:34.674Z,101259.08
2019-04-01T16:57:09.409Z,101249.34
2019-04-01T16:59:41.622Z,101246.39
2019-04-01T17:02:18.276Z,101253.61
2019-04-01T17:04:46.240Z,101254.58
2019-04-01T17:07:19.774Z,101254.89
2019-04-01T17:09:51.299Z,101246.05
2019-04-01T17:12:32.329Z,101244.25
2019-04-01T17:15:06.449Z,101241.67
2019-04-01T17:17:38.200Z,101243.47
2019-04-01T17:20:10.160Z,101234.45
2019-04-01T17:22:43.263Z,101225.12
2019-04-01T17:25:15.438Z,101222.97
2019-04-01T17:27:46.670Z,101217.56
2019-04-01T17:30:16.910Z,101213.44
2019-04-01T17:32:48.755Z,101206.67
2019-04-01T17:35:20.246Z,101214.23
2019-04-01T17:37:50.511Z,101220.55
2019-04-01T17:40:23.811Z,101212.72
2019-04-01T17:42:55.583Z,101207.64
2019-04-01T17:45:29.440Z,101211.41
2019-04-01T17:48:00.762Z,101206.26
2019-04-01T17:50:30.369Z,101201.20
2019-04-01T17:53:02.013Z,101197.39
2019-04-01T17:55:33.433Z,101201.10
2019-04-01T17:58:05.837Z,101192.89
2019-04-01T18:00:38.351Z,101192.44
2019-04-01T18:03:12.210Z,101189.28
2019-04-01T18:05:43.652Z,101191.76
2019-04-01T18:08:16.177Z,101173.58
2019-04-01T18:10:48.832Z,101178.45
2019-04-01T18:13:22.059Z,101176.77
2019-04-01T18:15:52.688Z,101167.14
2019-04-01T18:18:27.125Z,101160.51
2019-04-01T18:21:05.988Z,101165.66
2019-04-01T18:23:37.734Z,101162.91
2019-04-01T18:26:07.506Z,101158.99
2019-04-01T18:28:38.863Z,101155.56
2019-04-01T18:31:10.306Z,101155.56
2019-04-01T18:33:56.169Z,101151.87
2019-04-01T18:36:25.327Z,101154.59
2019-04-01T18:38:59.304Z,101151.39
2019-04-01T18:41:31.274Z,101139.22
2019-04-01T18:44:03.269Z,101139.84
2019-04-01T18:46:34.736Z,101141.77
2019-04-01T18:49:06.927Z,101137.27
2019-04-01T18:51:39.435Z,101133.73
2019-04-01T18:54:14.100Z,101129.81
2019-04-01T18:56:48.099Z,101133.75
2019-04-01T18:59:19.192Z,101135.52
2019-04-01T19:01:51.363Z,101136.41
2019-04-01T19:04:25.550Z,101127.85
2019-04-01T19:06:59.777Z,101123.36
2019-04-01T19:09:32.563Z,101106.17
2019-04-01T19:12:04.781Z,101100.44
2019-04-01T19:14:36.733Z,101100.27
2019-04-01T19:17:08.197Z,101100.34
2019-04-01T19:19:42.434Z,101102.81
2019-04-01T19:22:14.862Z,101098.62
2019-04-01T19:24:47.087Z,101088.99
2019-04-01T19:27:18.232Z,101075.19
2019-04-01T19:29:52.658Z,101074.22
2019-04-01T19:32:27.122Z,101072.91
2019-04-01T19:34:57.055Z,101062.14
2019-04-01T19:37:28.769Z,101057.98
2019-04-01T19:39:59.761Z,101062.55
2019-04-01T19:42:32.208Z,101063.40
2019-04-01T19:45:03.412Z,101059.31
2019-04-01T19:47:35.086Z,101050.73
2019-04-01T19:50:08.008Z,101046.41
2019-04-01T19:52:39.443Z,101048.94
2019-04-01T19:55:18.518Z,101046.73
2019-04-01T19:57:50.243Z,101044.20
2019-04-01T20:00:27.556Z,101039.77
2019-04-01T20:02:52.965Z,101032.97
2019-04-01T20:05:24.225Z,101017.86
2019-04-01T20:07:55.241Z,101019.55
2019-04-01T20:10:28.397Z,101015.11
2019-04-01T20:12:59.500Z,101015.22
2019-04-01T20:15:29.580Z,101006.22
2019-04-01T20:18:01.211Z,101007.05
2019-04-01T20:20:32.331Z,101009.63
2019-04-01T20:23:03.311Z,101006.05
2019-04-01T20:25:35.174Z,101000.42
2019-04-01T20:28:06.413Z,100997.91
2019-04-01T20:30:38.475Z,100998.98
2019-04-01T20:33:17.570Z,101009.48
2019-04-01T20:35:42.161Z,101006.32
2019-04-01T20:38:14.505Z,101011.81
2019-04-01T20:40:47.052Z,101006.58
2019-04-01T20:43:18.510Z,101009.97
2019-04-01T20:45:48.621Z,101005.05
2019-04-01T20:48:20.339Z,101000.05
2019-04-01T20:50:54.916Z,101006.40
2019-04-01T20:53:26.096Z,101000.09
2019-04-01T20:56:00.153Z,100994.69
2019-04-01T20:58:31.785Z,100990.30
2019-04-01T21:01:03.112Z,100986.17
2019-04-01T21:03:34.529Z,100975.56
2019-04-01T21:06:15.343Z,100970.16
2019-04-01T21:08:47.387Z,100963.91
2019-04-01T21:11:19.385Z,100974.72
2019-04-01T21:13:53.779Z,100969.22
2019-04-01T21:16:24.946Z,100968.46
2019-04-01T21:18:57.325Z,100960.23
2019-04-01T21:21:28.591Z,100967.64
2019-04-01T21:24:00.884Z,100965.66
2019-04-01T21:26:32.515Z,100963.77
2019-04-01T21:29:03.834Z,100960.44
2019-04-01T21:31:38.099Z,100963.86
2019-04-01T21:34:10.264Z,100966.48
2019-04-01T21:36:42.295Z,100967.22
2019-04-01T21:39:13.615Z,100969.83
2019-04-01T21:41:44.971Z,100968.00
2019-04-01T21:44:18.191Z,100961.94
2019-04-01T21:46:50.562Z,100965.27
2019-04-01T21:49:21.799Z,100968.19
2019-04-01T21:51:53.073Z,100971.70
2019-04-01T21:54:24.060Z,100973.25
2019-04-01T21:56:55.265Z,100974.02
2019-04-01T21:59:26.572Z,100978.70
2019-04-01T22:02:00.400Z,100987.67
2019-04-01T22:04:31.346Z,101000.30
2019-04-01T22:07:02.459Z,101001.26
2019-04-01T22:09:34.051Z,101013.13
2019-04-01T22:12:05.819Z,101019.61
2019-04-01T22:14:36.770Z,101017.53
2019-04-01T22:17:08.075Z,101018.79
2019-04-01T22:19:39.236Z,101027.05
2019-04-01T22:22:10.813Z,101030.09
2019-04-01T22:24:43.468Z,101035.25
2019-04-01T22:27:14.743Z,101027.73
2019-04-01T22:29:45.918Z,101029.55
2019-04-01T22:32:16.993Z,101029.58
2019-04-01T22:34:49.212Z,101032.27
2019-04-01T22:37:27.610Z,101037.58
2019-04-01T22:39:56.803Z,101038.00
2019-04-01T22:42:28.047Z,101042.91
2019-04-01T22:45:04.768Z,101044.52
2019-04-01T22:47:41.184Z,101048.29
